Time;durP1;ratioP1;P1;durP2;ratioP2;P2;SDS_P1;SDS_P2;PMS_P1;PMS_P2;Temp;Humidity;BMP_temperature;BMP_pressure;BME280_temperature;BME280_humidity;BME280_pressure;Samples;Min_cycle;Max_cycle;Signal;HPM_P1;HPM_P2
2022/02/04 00:06:01;;;;;;;4.95;4.22;;;;;;;3.51;47.29;101871.84;1641090;86;21014;-69
2022/02/04 00:22:04;;;;;;;3.95;3.33;;;;;;;3.46;47.24;101892.34;1575613;90;21128;-69
2022/02/04 00:24:13;;;;;;;5.00;4.40;;;;;;;3.42;47.23;101884.50;1577675;90;21099;-69
2022/02/04 00:26:48;;;;;;;5.35;4.12;;;;;;;3.40;47.12;101895.17;1602218;86;21796;-69
2022/02/04 00:29:24;;;;;;;4.78;4.03;;;;;;;3.39;47.00;101906.28;1655951;86;21086;-69
2022/02/04 00:31:51;;;;;;;5.45;4.20;;;;;;;3.37;46.68;101888.65;1652943;86;21572;-68
2022/02/04 00:34:17;;;;;;;5.78;4.55;;;;;;;3.33;46.71;101877.83;1647536;87;21092;-68
2022/02/04 00:39:13;;;;;;;6.47;4.75;;;;;;;3.30;46.69;101879.48;1636297;85;21049;-68
2022/02/04 00:41:39;;;;;;;6.33;4.80;;;;;;;3.28;46.61;101875.13;1636438;86;21133;-69
2022/02/04 00:44:16;;;;;;;4.70;4.08;;;;;;;3.25;46.63;101881.09;1644610;85;21080;-68
2022/02/04 00:49:25;;;;;;;6.30;4.37;;;;;;;3.16;46.82;101888.56;1639806;86;21057;-69
2022/02/04 00:54:42;;;;;;;5.20;3.58;;;;;;;3.08;46.93;101891.34;1718618;82;20996;-68
2022/02/04 01:13:32;;;;;;;5.03;3.87;;;;;;;3.19;46.40;101901.92;1715577;82;21120;-69
2022/02/04 01:25:56;;;;;;;6.25;4.17;;;;;;;3.17;46.50;101891.56;1707510;82;21067;-69
2022/02/04 01:26:39;;;;;;;6.78;4.30;;;;;;;3.22;46.25;101898.13;1749346;80;21071;-69
2022/02/04 01:29:07;;;;;;;6.90;4.45;;;;;;;3.19;46.15;101898.06;1766261;80;21011;-69
2022/02/04 01:31:34;;;;;;;6.78;4.35;;;;;;;3.19;46.22;101898.06;1764770;80;21549;-69
2022/02/04 01:34:01;;;;;;;6.15;4.92;;;;;;;3.21;46.15;101901.10;1759386;80;20994;-69
2022/02/04 01:36:27;;;;;;;6.87;4.62;;;;;;;3.18;46.10;101903.61;1745143;80;21060;-69
2022/02/04 01:38:54;;;;;;;6.17;4.78;;;;;;;3.16;46.07;101906.56;1750046;81;20967;-69
2022/02/04 01:41:20;;;;;;;6.12;4.50;;;;;;;3.14;46.17;101902.20;1763344;80;21096;-69
2022/02/04 01:43:46;;;;;;;7.67;4.33;;;;;;;3.10;46.10;101899.97;1774796;80;21069;-69
2022/02/04 01:46:13;;;;;;;5.03;4.25;;;;;;;3.06;46.28;101900.72;1755304;80;21050;-69
2022/02/04 01:48:40;;;;;;;6.40;4.37;;;;;;;3.01;46.62;101897.14;1751703;80;21064;-69
2022/02/04 01:51:10;;;;;;;5.40;4.05;;;;;;;3.00;46.90;101897.98;1754046;80;21078;-68
2022/02/04 01:53:37;;;;;;;5.30;4.17;;;;;;;2.98;46.86;101890.64;1760163;80;21038;-69
2022/02/04 01:56:07;;;;;;;5.62;4.05;;;;;;;2.98;47.13;101889.77;1758616;80;21021;-69
2022/02/04 01:58:33;;;;;;;5.50;4.42;;;;;;;2.98;47.17;101889.36;1752515;81;21037;-69
2022/02/04 02:01:00;;;;;;;7.28;4.37;;;;;;;2.98;47.22;101890.64;1753346;80;20975;-69
2022/02/04 02:03:27;;;;;;;6.50;4.80;;;;;;;2.98;47.19;101890.64;1756777;80;21034;-68
2022/02/04 02:05:57;;;;;;;7.42;5.30;;;;;;;3.01;47.12;101888.14;1754275;80;21046;-69
2022/02/04 02:08:22;;;;;;;7.65;5.42;;;;;;;3.03;47.07;101894.63;1745111;80;21045;-68
2022/02/04 02:10:50;;;;;;;6.20;4.83;;;;;;;3.06;46.98;101895.58;1753413;80;21556;-69
2022/02/04 02:16:16;;;;;;;5.87;4.55;;;;;;;3.21;46.92;101900.26;1754374;80;21005;-69
2022/02/04 02:48:10;;;;;;;5.83;4.55;;;;;;;3.36;45.51;101885.64;1688789;84;21624;-69
2022/02/04 03:00:46;;;;;;;6.95;4.80;;;;;;;3.39;46.01;101920.42;1689239;84;21096;-68
2022/02/04 03:03:07;;;;;;;6.25;4.62;;;;;;;3.46;46.03;101924.91;1676530;84;21183;-69
2022/02/04 03:05:31;;;;;;;5.25;4.50;;;;;;;3.52;46.00;101916.06;1683379;83;21049;-69
2022/02/04 03:07:57;;;;;;;7.33;5.10;;;;;;;3.57;46.04;101920.89;1661557;85;21030;-69
2022/02/04 03:10:24;;;;;;;6.40;5.22;;;;;;;3.60;46.13;101918.00;1655822;85;21614;-69
2022/02/04 03:12:51;;;;;;;7.25;5.00;;;;;;;3.64;46.08;101920.22;1633493;86;21543;-69
2022/02/04 03:15:18;;;;;;;7.05;5.12;;;;;;;3.68;46.03;101918.17;1656461;85;21510;-69
2022/02/04 03:17:48;;;;;;;7.45;5.08;;;;;;;3.71;46.09;101914.41;1682629;84;21478;-68
2022/02/04 03:20:15;;;;;;;8.05;6.03;;;;;;;3.73;45.96;101918.73;1690478;84;21031;-69
2022/02/04 03:22:41;;;;;;;8.30;5.78;;;;;;;3.75;46.00;101918.35;1686018;84;21034;-70
2022/02/04 03:25:11;;;;;;;9.25;5.65;;;;;;;3.77;46.08;101918.41;1700336;84;21002;-70
2022/02/04 03:27:46;;;;;;;7.42;5.55;;;;;;;3.76;46.00;101918.82;1680178;84;21042;-68
2022/02/04 03:30:17;;;;;;;8.40;5.92;;;;;;;3.79;45.88;101921.89;1692931;83;21062;-69
2022/02/04 03:32:45;;;;;;;7.40;5.55;;;;;;;3.79;45.82;101916.74;1683252;83;21098;-69
2022/02/04 03:35:08;;;;;;;7.35;5.00;;;;;;;3.81;45.92;101922.80;1745930;80;21014;-69
2022/02/04 03:37:35;;;;;;;6.60;4.65;;;;;;;3.80;45.87;101919.34;1765377;81;21065;-69
2022/02/04 03:40:01;;;;;;;6.65;4.90;;;;;;;3.80;46.00;101918.47;1765655;80;20999;-69
2022/02/04 03:42:29;;;;;;;7.15;5.22;;;;;;;3.80;46.25;101922.33;1745238;80;21534;-69
2022/02/04 03:44:56;;;;;;;6.08;4.97;;;;;;;3.79;46.30;101924.47;1756130;80;21035;-69
2022/02/04 03:47:22;;;;;;;7.37;5.12;;;;;;;3.80;46.21;101919.75;1752245;80;21536;-69
2022/02/04 03:49:49;;;;;;;8.25;5.30;;;;;;;3.80;46.09;101924.91;1760183;80;21041;-69
2022/02/04 03:52:15;;;;;;;9.83;5.55;;;;;;;3.80;45.94;101932.63;1751680;80;21010;-68
2022/02/04 03:54:42;;;;;;;6.75;4.72;;;;;;;3.79;45.98;101933.03;1754039;80;21018;-69
2022/02/04 03:57:08;;;;;;;7.33;5.40;;;;;;;3.80;45.83;101935.20;1756228;80;21054;-69
2022/02/04 03:59:35;;;;;;;6.47;5.33;;;;;;;3.79;45.86;101942.48;1752275;80;20990;-69
2022/02/04 04:02:03;;;;;;;6.80;5.47;;;;;;;3.79;45.95;101937.34;1749193;80;21117;-68
2022/02/04 04:04:32;;;;;;;7.05;5.42;;;;;;;3.78;46.00;101940.33;1754919;80;21011;-69
2022/02/04 04:06:58;;;;;;;7.10;5.37;;;;;;;3.78;46.03;101945.87;1753283;80;20978;-69
2022/02/04 04:09:25;;;;;;;8.65;6.22;;;;;;;3.76;46.01;101942.40;1765924;80;21478;-69
2022/02/04 04:11:52;;;;;;;7.90;5.97;;;;;;;3.73;45.63;101951.34;1763370;80;21487;-69
2022/02/04 04:14:18;;;;;;;6.45;5.03;;;;;;;3.65;45.48;101954.12;1753517;80;21572;-70
2022/02/04 04:16:47;;;;;;;6.37;5.33;;;;;;;3.57;45.59;101955.63;1755557;80;21459;-69
2022/02/04 04:19:14;;;;;;;7.30;5.35;;;;;;;3.49;45.59;101959.71;1741518;80;21026;-69
2022/02/04 04:21:41;;;;;;;6.10;4.85;;;;;;;3.42;45.69;101966.83;1752138;81;21009;-69
2022/02/04 04:24:07;;;;;;;5.40;4.30;;;;;;;3.37;45.89;101965.42;1756795;80;21023;-71
2022/02/04 04:26:34;;;;;;;6.90;4.75;;;;;;;3.35;45.91;101963.62;1765457;80;21010;-69
2022/02/04 04:29:00;;;;;;;6.42;5.08;;;;;;;3.28;45.91;101960.89;1766347;80;20983;-69
2022/02/04 04:31:27;;;;;;;6.35;4.90;;;;;;;3.25;45.88;101959.55;1744168;81;21521;-68
2022/02/04 04:33:53;;;;;;;6.22;5.08;;;;;;;3.23;45.74;101967.63;1754586;80;21002;-68
2022/02/04 04:36:20;;;;;;;6.62;5.00;;;;;;;3.18;45.82;101967.91;1758680;80;21033;-69
2022/02/04 04:39:06;;;;;;;7.55;5.28;;;;;;;3.14;45.90;101961.34;1758720;80;21112;-68
2022/02/04 04:41:45;;;;;;;6.60;4.90;;;;;;;3.08;45.85;101962.06;1762067;80;21052;-69
2022/02/04 05:30:16;;;;;;;5.75;4.65;;;;;;;2.66;46.92;102012.22;1630569;88;21053;-68
2022/02/04 05:32:43;;;;;;;6.37;4.90;;;;;;;2.68;46.68;102009.28;1625926;87;21548;-68
2022/02/04 05:35:11;;;;;;;7.22;4.70;;;;;;;2.68;46.70;102014.42;1627513;87;21050;-68
2022/02/04 05:37:43;;;;;;;6.85;4.70;;;;;;;2.71;46.63;102015.81;1623886;88;21057;-69
2022/02/04 05:40:12;;;;;;;6.42;5.05;;;;;;;2.72;46.24;102014.97;1624220;88;21616;-68
2022/02/04 05:42:39;;;;;;;9.15;5.90;;;;;;;2.70;46.17;102020.91;1625441;87;21411;-68
2022/02/04 05:45:15;;;;;;;8.95;5.25;;;;;;;2.64;46.06;102019.01;1641765;86;21049;-68
2022/02/04 05:47:35;;;;;;;8.53;5.10;;;;;;;2.62;46.18;102025.80;1634359;86;21517;-69
2022/02/04 05:52:32;;;;;;;6.97;5.80;;;;;;;2.67;46.33;102020.81;1644047;86;21184;-68
2022/02/04 05:55:12;;;;;;;8.45;5.72;;;;;;;2.70;46.25;102011.48;1639772;86;21052;-68
2022/02/04 06:02:39;;;;;;;11.12;6.47;;;;;;;2.91;46.35;102006.98;1584231;90;21065;-69
2022/02/04 06:05:12;;;;;;;11.60;6.00;;;;;;;2.97;46.48;102014.87;1575021;90;21136;-68
2022/02/04 06:23:44;;;;;;;7.85;6.33;;;;;;;3.23;45.80;102011.36;1593785;89;21152;-68
2022/02/04 06:26:11;;;;;;;8.05;5.65;;;;;;;3.21;46.12;102012.98;1606818;87;21074;-68
2022/02/04 06:28:38;;;;;;;9.10;6.05;;;;;;;3.20;46.34;102010.38;1603754;87;21064;-68
2022/02/04 06:31:05;;;;;;;8.53;6.33;;;;;;;3.25;46.57;102012.27;1610262;88;21106;-68
2022/02/04 06:33:34;;;;;;;7.40;5.50;;;;;;;3.28;46.32;102011.05;1595740;89;21062;-69
2022/02/04 06:36:00;;;;;;;7.85;6.05;;;;;;;3.30;46.38;102017.52;1599429;89;21208;-69
2022/02/04 06:38:27;;;;;;;8.23;5.28;;;;;;;3.36;46.45;102011.69;1602855;88;21106;-69
2022/02/04 06:40:54;;;;;;;7.37;5.37;;;;;;;3.40;46.58;102018.66;1596945;87;21084;-69
2022/02/04 06:43:21;;;;;;;7.97;5.85;;;;;;;3.42;46.79;102005.42;1613892;88;21649;-68
2022/02/04 06:45:48;;;;;;;8.60;5.60;;;;;;;3.45;46.97;102019.64;1596511;86;21057;-69
2022/02/04 06:48:14;;;;;;;11.05;5.55;;;;;;;3.48;47.21;102013.30;1686514;83;21038;-69
2022/02/04 06:50:40;;;;;;;6.05;4.85;;;;;;;3.53;47.15;102015.57;1694038;84;21023;-69
2022/02/04 06:53:08;;;;;;;9.33;5.28;;;;;;;3.56;46.92;102020.81;1720296;82;21074;-68
2022/02/04 06:55:35;;;;;;;8.38;4.87;;;;;;;3.59;46.91;102014.44;1725340;82;21032;-68
2022/02/04 06:58:02;;;;;;;7.12;5.37;;;;;;;3.62;46.86;102013.25;1710958;82;21015;-69
2022/02/04 07:00:29;;;;;;;6.47;4.78;;;;;;;3.66;46.95;102017.23;1712661;82;21125;-69
2022/02/04 07:02:56;;;;;;;7.80;5.58;;;;;;;3.70;46.94;102018.19;1721592;82;21488;-68
2022/02/04 07:05:23;;;;;;;7.00;5.00;;;;;;;3.73;46.99;102016.98;1716932;82;21075;-69
2022/02/04 07:08:02;;;;;;;5.80;4.70;;;;;;;3.72;46.75;102011.38;1712624;82;21010;-69
2022/02/04 07:10:28;;;;;;;13.08;5.60;;;;;;;3.72;46.43;102010.08;1729394;82;21574;-68
2022/02/04 07:13:00;;;;;;;6.78;4.80;;;;;;;3.71;46.01;102006.63;1740668;82;21027;-68
2022/02/04 07:20:28;;;;;;;6.85;5.25;;;;;;;3.75;46.13;102018.75;1664436;85;21433;-68
2022/02/04 07:22:54;;;;;;;6.92;5.42;;;;;;;3.76;46.14;102012.78;1625500;86;21022;-69
2022/02/04 07:25:21;;;;;;;5.95;4.75;;;;;;;3.72;46.38;102018.69;1629502;86;21047;-69
2022/02/04 07:27:47;;;;;;;7.28;4.70;;;;;;;3.71;46.52;102022.52;1642197;84;21566;-70
2022/02/04 07:30:15;;;;;;;6.70;5.05;;;;;;;3.68;46.61;102018.56;1633747;86;21519;-69
2022/02/04 07:32:52;;;;;;;6.00;4.70;;;;;;;3.68;46.77;102021.13;1609029;88;21067;-68
2022/02/04 07:43:14;;;;;;;6.75;4.60;;;;;;;3.87;46.17;102011.77;1661679;85;21062;-69
2022/02/04 07:45:41;;;;;;;6.00;4.60;;;;;;;3.94;46.28;102017.10;1650191;85;21069;-69
2022/02/04 07:48:07;;;;;;;6.62;4.72;;;;;;;4.05;45.83;102010.94;1644481;85;21089;-69
2022/02/04 07:50:35;;;;;;;7.33;5.30;;;;;;;4.08;45.57;102006.72;1653960;85;21078;-68
2022/02/04 07:53:01;;;;;;;6.67;4.50;;;;;;;4.11;45.61;102005.93;1670080;85;21054;-69
2022/02/04 07:55:29;;;;;;;6.03;4.85;;;;;;;4.16;45.60;102004.35;1654860;85;21081;-69
2022/02/04 07:57:56;;;;;;;7.55;5.30;;;;;;;4.23;45.37;101995.92;1658124;84;21069;-68
2022/02/04 08:00:22;;;;;;;6.83;4.78;;;;;;;4.26;45.24;101998.58;1674193;84;21029;-69
2022/02/04 08:02:51;;;;;;;6.47;4.85;;;;;;;4.30;45.09;102008.12;1681246;84;21135;-68
2022/02/04 08:05:21;;;;;;;7.47;4.55;;;;;;;4.35;44.67;101998.77;1641534;86;21040;-68
2022/02/04 08:07:53;;;;;;;5.67;4.67;;;;;;;4.37;44.59;102001.41;1679840;84;21031;-68
2022/02/04 08:18:03;;;;;;;6.83;5.30;;;;;;;4.42;44.49;101998.09;1602532;88;21086;-69
2022/02/04 08:23:06;;;;;;;6.25;4.58;;;;;;;4.44;44.08;102009.30;1616772;87;21593;-69
2022/02/04 08:38:41;;;;;;;5.67;4.12;;;;;;;4.52;43.62;102002.62;1572787;90;21054;-68
2022/02/04 08:54:47;;;;;;;5.37;3.50;;;;;;;4.86;43.03;101996.05;1583266;87;21596;-68
2022/02/04 08:59:55;;;;;;;4.40;3.37;;;;;;;4.97;42.77;101983.83;1601454;87;21574;-69
2022/02/04 09:02:16;;;;;;;7.28;4.03;;;;;;;4.97;42.92;101982.54;1607567;87;21121;-69
2022/02/04 09:07:10;;;;;;;5.25;3.30;;;;;;;4.87;43.28;101975.89;1531862;91;21082;-69
2022/02/04 09:16:53;;;;;;;6.70;4.28;;;;;;;4.83;43.62;101978.37;1571186;90;21659;-69
2022/02/04 09:20:10;;;;;;;6.15;4.83;;;;;;;4.90;43.29;101976.37;1507365;92;21129;-69
2022/02/04 09:22:46;;;;;;;7.20;3.95;;;;;;;4.85;43.45;101972.41;1545534;92;21097;-69
2022/02/04 09:25:11;;;;;;;5.33;4.10;;;;;;;4.83;43.72;101966.35;1552956;91;21575;-69
2022/02/04 09:27:39;;;;;;;5.58;3.85;;;;;;;4.86;44.12;101966.40;1547640;91;21395;-69
2022/02/04 09:30:09;;;;;;;5.90;4.20;;;;;;;4.94;44.10;101957.14;1549974;91;21096;-69
2022/02/04 09:32:37;;;;;;;4.70;3.65;;;;;;;5.04;44.00;101957.30;1535745;90;21081;-69
2022/02/04 09:35:06;;;;;;;4.75;3.55;;;;;;;5.10;43.68;101957.00;1551549;91;21106;-69
2022/02/04 09:37:32;;;;;;;5.65;3.92;;;;;;;5.13;43.70;101944.15;1609726;86;21076;-68
2022/02/04 09:39:59;;;;;;;4.33;3.50;;;;;;;5.20;43.75;101949.02;1628587;86;21090;-68
2022/02/04 09:42:27;;;;;;;6.15;3.55;;;;;;;5.30;43.68;101941.47;1627206;86;21684;-68
2022/02/04 09:44:54;;;;;;;5.22;4.08;;;;;;;5.37;43.49;101938.59;1632302;86;21037;-70
2022/02/04 09:47:24;;;;;;;6.70;4.53;;;;;;;5.43;43.40;101929.66;1637974;87;21047;-68
2022/02/04 10:19:49;;;;;;;3.55;3.15;;;;;;;5.43;41.55;101906.44;1525604;92;21592;-69
2022/02/04 10:22:08;;;;;;;5.08;3.70;;;;;;;5.37;42.21;101921.40;1498048;94;21065;-69
2022/02/04 10:24:35;;;;;;;5.10;3.90;;;;;;;5.40;42.31;101918.02;1477824;95;21108;-69
2022/02/04 10:27:20;;;;;;;4.80;3.70;;;;;;;5.41;42.90;101910.70;1484196;95;21143;-68
2022/02/04 10:30:00;;;;;;;5.33;3.85;;;;;;;5.44;43.08;101911.61;1520210;93;22811;-69
2022/02/04 10:32:46;;;;;;;6.10;4.05;;;;;;;5.45;42.87;101912.48;1502944;95;21678;-69
2022/02/04 10:35:26;;;;;;;4.03;3.17;;;;;;;5.39;42.82;101909.80;1491025;94;21613;-68
2022/02/04 10:38:21;;;;;;;4.33;3.77;;;;;;;5.40;43.07;101915.44;1477410;95;21202;-69
2022/02/04 10:40:54;;;;;;;3.92;3.50;;;;;;;5.44;43.14;101913.35;1496578;95;21098;-69
2022/02/04 11:07:34;;;;;;;5.30;3.95;;;;;;;5.82;41.59;101884.27;1425469;100;21166;-69
2022/02/04 11:09:58;;;;;;;8.88;3.92;;;;;;;5.79;41.85;101881.20;1412050;102;21136;-69
2022/02/04 11:35:17;;;;;;;4.10;3.35;;;;;;;6.41;40.63;101884.72;1477611;95;21173;-69
2022/02/04 11:52:43;;;;;;;3.55;2.25;;;;;;;6.89;39.42;101848.23;1501029;94;21145;-68
2022/02/04 11:55:16;;;;;;;3.22;2.37;;;;;;;6.88;39.42;101855.15;1503787;93;21098;-69
2022/02/04 11:58:03;;;;;;;1.90;1.65;;;;;;;6.88;39.65;101843.92;1561909;89;21079;-69
2022/02/04 12:00:39;;;;;;;3.85;2.30;;;;;;;6.92;39.07;101840.52;1590103;88;22193;-69
2022/02/04 12:03:29;;;;;;;3.02;2.22;;;;;;;6.89;39.03;101845.64;1543072;91;22043;-69
2022/02/04 12:05:56;;;;;;;3.65;2.62;;;;;;;6.87;39.00;101842.17;1518701;92;21134;-69
2022/02/04 12:08:24;;;;;;;2.77;2.20;;;;;;;6.85;38.72;101845.17;1488100;95;21159;-68
2022/02/04 12:10:53;;;;;;;2.55;2.10;;;;;;;6.81;38.12;101845.58;1476147;96;21183;-69
2022/02/04 12:13:20;;;;;;;3.10;2.20;;;;;;;6.78;38.08;101847.27;1487904;95;21191;-68
2022/02/04 12:16:06;;;;;;;4.28;2.80;;;;;;;6.76;37.63;101846.38;1486974;95;21690;-69
2022/02/04 12:18:41;;;;;;;4.12;2.92;;;;;;;6.76;37.64;101843.80;1504969;94;21180;-69
2022/02/04 12:21:13;;;;;;;3.00;2.35;;;;;;;6.77;37.74;101841.22;1496772;94;21139;-69
2022/02/04 12:23:44;;;;;;;3.33;2.70;;;;;;;6.81;37.76;101839.52;1469514;96;21101;-69
2022/02/04 12:26:19;;;;;;;3.35;2.95;;;;;;;6.82;37.96;101844.70;1487769;94;21121;-68
2022/02/04 12:29:05;;;;;;;4.62;3.33;;;;;;;6.83;38.18;101841.70;1491049;95;21229;-68
2022/02/04 12:31:35;;;;;;;3.83;3.10;;;;;;;6.81;38.03;101844.70;1501535;94;21149;-68
2022/02/04 12:34:14;;;;;;;4.47;3.42;;;;;;;6.80;38.15;101839.09;1494695;94;21138;-68
2022/02/04 12:36:49;;;;;;;4.97;3.83;;;;;;;6.80;38.35;101842.98;1498929;94;21113;-68
2022/02/04 12:39:22;;;;;;;8.85;5.97;;;;;;;6.79;38.58;101839.52;1545593;91;21084;-68
2022/02/04 12:41:54;;;;;;;6.53;4.45;;;;;;;6.80;38.50;101837.80;1540088;92;21065;-68
2022/02/04 12:44:23;;;;;;;9.43;6.85;;;;;;;6.82;38.17;101837.39;1544081;92;21109;-68
2022/02/04 12:46:54;;;;;;;9.23;6.87;;;;;;;6.84;38.10;101835.69;1546655;92;21103;-68
2022/02/04 12:49:23;;;;;;;;;;;;;;;6.88;37.98;101837.45;1526121;92;21656;-68
2022/02/04 12:54:53;;;;;;;6.67;4.78;;;;;;;6.91;37.95;101837.47;1409686;99;21166;-68
2022/02/04 13:03:10;;;;;;;4.35;3.65;;;;;;;6.97;37.48;101828.47;1508315;91;22629;-68
2022/02/04 13:08:41;;;;;;;3.77;3.17;;;;;;;6.96;37.38;101825.05;1559828;90;21198;-69
2022/02/04 13:11:10;;;;;;;3.77;3.42;;;;;;;6.95;36.97;101822.42;1583535;89;21033;-69
2022/02/04 13:13:46;;;;;;;8.38;7.45;;;;;;;6.93;36.72;101824.13;1565997;90;21192;-70
2022/02/04 13:16:09;;;;;;;7.15;5.95;;;;;;;6.90;36.96;101821.52;1572204;90;21109;-68
2022/02/04 13:18:35;;;;;;;8.08;6.67;;;;;;;6.87;37.03;101824.94;1559779;90;21216;-69
2022/02/04 13:21:02;;;;;;;6.37;4.97;;;;;;;6.85;37.00;101824.06;1559407;90;21090;-68
2022/02/04 13:23:31;;;;;;;8.28;6.65;;;;;;;6.86;36.78;101821.05;1560201;90;21098;-68
2022/02/04 13:26:00;;;;;;;9.20;7.55;;;;;;;6.88;36.68;101825.81;1560411;90;21043;-69
2022/02/04 13:28:38;;;;;;;13.08;11.78;;;;;;;6.89;36.80;101825.82;1561259;90;21098;-68
2022/02/04 13:31:10;;;;;;;13.32;11.93;;;;;;;6.93;36.73;101821.53;1575582;86;21589;-69
2022/02/04 13:33:43;;;;;;;8.38;6.80;;;;;;;6.96;36.86;101817.70;1633644;86;21070;-68
2022/02/04 13:36:37;;;;;;;7.03;5.80;;;;;;;7.02;36.65;101819.05;1637836;86;21029;-68
2022/02/04 13:44:46;;;;;;;3.95;3.40;;;;;;;7.26;36.96;101827.03;1612067;86;21649;-69
2022/02/04 13:55:52;;;;;;;4.67;3.60;;;;;;;7.50;37.34;101820.75;1703584;83;21546;-68
2022/02/04 14:01:02;;;;;;;5.17;3.55;;;;;;;7.53;37.93;101818.62;1686410;83;21045;-69
2022/02/04 14:03:31;;;;;;;5.17;3.27;;;;;;;7.53;38.29;101818.20;1688469;83;21067;-69
2022/02/04 14:06:07;;;;;;;3.70;3.12;;;;;;;7.53;38.63;101819.50;1634008;87;21118;-69
2022/02/04 14:08:53;;;;;;;3.67;3.08;;;;;;;7.54;38.80;101819.08;1620350;87;21089;-69
2022/02/04 14:14:26;;;;;;;4.15;3.27;;;;;;;7.50;39.32;101808.25;1582321;89;21078;-70
2022/02/04 14:16:55;;;;;;;5.20;3.17;;;;;;;7.48;39.52;101810.80;1583790;88;21574;-70
2022/02/04 14:19:28;;;;;;;3.47;3.12;;;;;;;7.46;39.85;101812.97;1570429;90;21133;-69
2022/02/04 14:21:54;;;;;;;5.03;3.67;;;;;;;7.44;40.33;101815.52;1579505;89;21087;-70
2022/02/04 14:24:22;;;;;;;5.20;3.62;;;;;;;7.42;40.61;101810.77;1576983;89;21041;-68
2022/02/04 14:26:52;;;;;;;5.80;3.55;;;;;;;7.42;40.78;101816.39;1581989;89;21535;-70
2022/02/04 14:29:25;;;;;;;5.40;3.37;;;;;;;7.41;41.13;101818.11;1552851;90;21754;-70
2022/02/04 14:32:00;;;;;;;4.35;3.60;;;;;;;7.41;41.42;101824.58;1580032;89;21113;-69
2022/02/04 15:06:14;;;;;;;23.85;15.60;;;;;;;7.35;45.67;101831.88;1500686;93;21575;-70
2022/02/04 15:08:40;;;;;;;22.45;16.87;;;;;;;7.38;45.76;101834.90;1499948;93;21160;-70
2022/02/04 15:13:44;;;;;;;17.05;14.55;;;;;;;7.40;45.91;101840.54;1473036;96;21603;-69
2022/02/04 15:16:11;;;;;;;20.08;14.53;;;;;;;7.41;45.90;101838.83;1473466;97;21157;-70
2022/02/04 15:18:39;;;;;;;20.52;16.00;;;;;;;7.41;45.82;101840.13;1444727;98;21650;-71
2022/02/04 15:21:12;;;;;;;21.35;16.00;;;;;;;7.41;45.82;101845.30;1471443;97;21098;-70
2022/02/04 15:23:38;;;;;;;36.48;22.75;;;;;;;7.41;45.90;101847.89;1449752;99;21164;-71
2022/02/04 15:26:06;;;;;;;31.40;19.82;;;;;;;7.42;45.99;101845.72;1469779;97;21589;-70
2022/02/04 15:31:06;;;;;;;59.73;34.53;;;;;;;7.43;45.96;101844.88;1486991;96;21104;-70
2022/02/04 15:33:35;;;;;;;59.50;34.43;;;;;;;7.43;45.94;101850.48;1459973;98;21139;-69
2022/02/04 15:36:02;;;;;;;49.00;28.10;;;;;;;7.43;45.96;101847.47;1471443;96;21064;-69
2022/02/04 15:38:29;;;;;;;25.88;15.93;;;;;;;7.43;45.96;101851.36;1490739;96;21115;-69
2022/02/04 15:40:58;;;;;;;19.30;12.82;;;;;;;7.45;45.89;101857.41;1502359;95;21124;-70
2022/02/04 15:43:27;;;;;;;17.40;11.05;;;;;;;7.45;45.83;101858.70;1490548;95;21075;-70
2022/02/04 15:46:34;;;;;;;16.65;10.58;;;;;;;7.45;45.79;101853.95;1490621;96;21682;-69
2022/02/04 15:49:01;;;;;;;17.57;12.45;;;;;;;7.45;45.84;101852.23;1484159;96;21121;-69
2022/02/04 15:51:21;;;;;;;26.77;15.43;;;;;;;7.44;45.90;101850.48;1490549;96;21123;-69
2022/02/04 15:53:51;;;;;;;17.52;12.37;;;;;;;7.44;45.83;101855.66;1488042;96;21576;-70
2022/02/04 16:01:21;;;;;;;23.18;13.38;;;;;;;7.42;45.80;101850.90;1416245;100;21168;-70
2022/02/04 16:03:50;;;;;;;18.20;13.45;;;;;;;7.42;45.89;101848.77;1497002;95;21128;-70
2022/02/04 16:06:13;;;;;;;15.93;12.20;;;;;;;7.40;45.94;101856.49;1504311;95;21571;-69
2022/02/04 16:08:38;;;;;;;18.32;13.48;;;;;;;7.35;46.24;101853.02;1511855;94;21105;-70
2022/02/04 16:11:17;;;;;;;16.82;13.85;;;;;;;7.31;46.44;101859.90;1595361;88;21162;-70
2022/02/04 16:13:54;;;;;;;14.85;12.28;;;;;;;7.28;46.59;101857.69;1600963;89;21674;-70
2022/02/04 16:16:27;;;;;;;16.25;11.30;;;;;;;7.26;46.63;101860.69;1595419;90;21044;-70
2022/02/04 16:28:58;;;;;;;14.58;11.08;;;;;;;7.20;47.07;101863.22;1485798;94;21174;-70
2022/02/04 16:31:26;;;;;;;12.63;10.48;;;;;;;7.18;47.08;101861.05;1475035;96;21104;-70
2022/02/04 16:33:52;;;;;;;12.98;10.60;;;;;;;7.17;47.08;101860.63;1477748;95;21140;-69
2022/02/04 16:36:22;;;;;;;11.75;9.65;;;;;;;7.13;47.05;101855.81;1480449;95;21096;-69
2022/02/04 16:38:54;;;;;;;12.65;9.80;;;;;;;7.14;47.15;101863.16;1492516;94;21090;-70
2022/02/04 16:41:29;;;;;;;13.05;9.90;;;;;;;7.13;47.14;101869.20;1505430;94;21589;-69
2022/02/04 16:43:51;;;;;;;12.80;9.03;;;;;;;7.14;47.26;101868.34;1440655;98;21751;-70
2022/02/04 16:46:18;;;;;;;16.62;9.18;;;;;;;7.11;47.25;101863.98;1440895;99;21113;-70
2022/02/04 16:48:44;;;;;;;14.30;9.98;;;;;;;7.10;47.36;101858.81;1422926;98;21174;-70
2022/02/04 16:51:11;;;;;;;12.35;10.10;;;;;;;7.09;47.34;101857.09;1467773;96;21103;-69
2022/02/04 16:53:38;;;;;;;14.07;10.60;;;;;;;7.10;47.33;101856.22;1438851;92;21563;-70
2022/02/04 16:56:05;;;;;;;11.93;9.30;;;;;;;7.09;47.42;101854.05;1553088;91;21050;-70
2022/02/04 16:58:32;;;;;;;11.63;8.93;;;;;;;7.12;47.55;101851.93;1552393;91;21083;-70
2022/02/04 17:00:59;;;;;;;11.48;9.38;;;;;;;7.15;47.50;101849.38;1552934;91;21053;-70
2022/02/04 17:03:26;;;;;;;12.95;8.20;;;;;;;7.16;47.48;101845.92;1526885;93;21106;-70
2022/02/04 17:05:56;;;;;;;9.35;8.13;;;;;;;7.18;47.40;101841.62;1516951;94;21093;-69
2022/02/04 17:10:54;;;;;;;7.37;5.78;;;;;;;7.22;47.49;101851.16;1543734;92;21125;-70
2022/02/04 17:13:23;;;;;;;7.45;6.08;;;;;;;7.23;47.77;101850.32;1535765;92;21068;-70
2022/02/04 17:15:51;;;;;;;6.17;5.58;;;;;;;7.25;48.16;101858.97;1541224;92;21867;-70
2022/02/04 17:18:17;;;;;;;6.78;5.47;;;;;;;7.24;48.46;101857.22;1539360;91;21117;-70
2022/02/04 17:20:47;;;;;;;9.08;5.95;;;;;;;7.24;48.66;101857.22;1548891;89;21117;-71
2022/02/04 17:23:19;;;;;;;7.83;5.33;;;;;;;7.24;48.86;101856.80;1554499;91;21094;-70
2022/02/04 17:25:44;;;;;;;6.90;6.20;;;;;;;7.25;49.10;101855.09;1557855;91;21072;-70
2022/02/04 17:28:11;;;;;;;7.85;6.25;;;;;;;7.26;49.22;101858.09;1663683;84;21113;-70
2022/02/04 17:30:38;;;;;;;10.23;6.90;;;;;;;7.27;49.39;101852.08;1658768;85;21034;-70
2022/02/04 17:33:05;;;;;;;6.90;6.12;;;;;;;7.28;49.44;101856.39;1673817;85;21204;-71
2022/02/04 17:35:31;;;;;;;7.08;5.50;;;;;;;7.29;49.56;101856.84;1681156;84;21093;-68
2022/02/04 17:38:01;;;;;;;6.53;5.65;;;;;;;7.31;49.47;101856.43;1677146;84;21161;-67
2022/02/04 17:40:27;;;;;;;7.17;6.35;;;;;;;7.34;49.50;101859.03;1685225;84;21048;-69
2022/02/04 17:42:55;;;;;;;9.18;7.25;;;;;;;7.37;49.50;101853.89;1673812;84;21011;-71
2022/02/04 17:45:22;;;;;;;8.05;7.25;;;;;;;7.40;49.53;101861.67;1663155;84;21024;-69
2022/02/04 17:47:55;;;;;;;7.58;6.78;;;;;;;7.42;49.59;101861.26;1690313;80;21506;-70
2022/02/04 17:50:29;;;;;;;7.30;6.12;;;;;;;7.42;49.33;101857.37;1752071;81;21074;-69
2022/02/04 17:52:57;;;;;;;6.60;5.75;;;;;;;7.42;49.21;101860.41;1738792;80;21037;-70
2022/02/04 17:55:28;;;;;;;6.60;5.90;;;;;;;7.40;49.25;101851.31;1748783;81;21066;-70
2022/02/04 18:08:03;;;;;;;11.43;7.20;;;;;;;7.42;49.88;101841.84;1672981;85;21030;-71
2022/02/04 18:10:31;;;;;;;7.80;7.00;;;;;;;7.44;49.92;101847.89;1658514;84;21083;-70
2022/02/04 18:12:58;;;;;;;8.33;7.30;;;;;;;7.46;49.96;101841.00;1660044;86;21580;-71
2022/02/04 18:15:24;;;;;;;9.03;7.03;;;;;;;7.48;49.93;101844.47;1664375;85;21538;-70
2022/02/04 18:17:51;;;;;;;7.85;7.00;;;;;;;7.51;49.97;101849.70;1705335;82;21077;-70
2022/02/04 18:20:18;;;;;;;7.55;6.50;;;;;;;7.52;50.02;101850.15;1645541;85;21073;-70
2022/02/04 18:22:44;;;;;;;9.93;6.45;;;;;;;7.55;50.17;101855.34;1670367;85;21124;-70
2022/02/04 18:25:11;;;;;;;8.75;6.67;;;;;;;7.55;50.25;101852.75;1666001;85;21585;-70
2022/02/04 18:27:37;;;;;;;7.85;6.78;;;;;;;7.54;50.34;101854.91;1669055;85;21597;-70
2022/02/04 18:30:06;;;;;;;8.63;6.80;;;;;;;7.55;50.45;101855.34;1648492;85;21561;-70
2022/02/04 18:32:35;;;;;;;12.25;8.90;;;;;;;7.55;50.56;101851.45;1727694;82;21062;-70
2022/02/04 18:35:05;;;;;;;11.00;7.05;;;;;;;7.55;50.70;101857.92;1728555;82;21550;-70